Time;durP1;ratioP1;P1;durP2;ratioP2;P2;SDS_P1;SDS_P2;PMS_P1;PMS_P2;Temp;Humidity;BMP_temperature;BMP_pressure;BME280_temperature;BME280_humidity;BME280_pressure;Samples;Min_cycle;Max_cycle;Signal;HPM_P1;HPM_P2
2020/12/16 00:00:41;;;;;;;16.65;11.63;;;;;;;0.45;82.65;101300.80;1832366;77;21151;-68
2020/12/16 00:03:10;;;;;;;41.68;30.00;;;;;;;0.41;82.64;101305.68;1825406;78;22700;-68
2020/12/16 00:05:38;;;;;;;41.53;29.30;;;;;;;0.39;82.63;101306.16;1831268;78;21082;-68
2020/12/16 00:08:08;;;;;;;25.57;17.95;;;;;;;0.40;82.59;101306.57;1832583;77;21106;-68
2020/12/16 00:10:39;;;;;;;16.70;11.68;;;;;;;0.41;82.58;101308.72;1832110;77;21150;-68
2020/12/16 00:13:10;;;;;;;13.58;9.75;;;;;;;0.41;82.60;101308.72;1830165;78;21138;-68
2020/12/16 00:15:38;;;;;;;15.48;11.48;;;;;;;0.40;82.58;101310.47;1799997;78;22059;-69
2020/12/16 00:18:05;;;;;;;16.32;11.95;;;;;;;0.40;82.56;101309.61;1807025;78;21056;-69
2020/12/16 00:20:34;;;;;;;15.25;10.93;;;;;;;0.38;82.52;101316.56;1800862;78;21063;-69
2020/12/16 00:23:02;;;;;;;17.57;11.83;;;;;;;0.37;82.52;101315.72;1801825;78;21505;-69
2020/12/16 00:25:30;;;;;;;14.95;10.60;;;;;;;0.38;82.53;101318.72;1830216;77;21091;-69
2020/12/16 00:27:57;;;;;;;16.50;11.53;;;;;;;0.40;82.52;101317.41;1825337;78;22040;-69
2020/12/16 00:30:25;;;;;;;16.42;11.63;;;;;;;0.41;82.52;101319.13;1829844;78;21481;-69
2020/12/16 00:32:52;;;;;;;15.83;11.05;;;;;;;0.40;82.50;101315.66;1830514;78;21461;-69
2020/12/16 00:35:21;;;;;;;15.88;10.70;;;;;;;0.41;82.50;101321.27;1805897;78;21366;-69
2020/12/16 00:37:50;;;;;;;13.50;9.88;;;;;;;0.42;82.50;101319.52;1807765;78;21139;-69
2020/12/16 00:40:17;;;;;;;16.65;11.00;;;;;;;0.41;82.49;101319.13;1805716;77;22065;-69
2020/12/16 00:42:49;;;;;;;13.53;8.75;;;;;;;0.42;82.47;101324.28;1832467;77;21138;-69
2020/12/16 00:45:17;;;;;;;13.13;9.43;;;;;;;0.43;82.47;101320.78;1832352;77;21478;-69
2020/12/16 00:47:45;;;;;;;14.00;9.75;;;;;;;0.43;82.43;101319.93;1825427;78;21039;-69
2020/12/16 00:50:14;;;;;;;14.00;9.73;;;;;;;0.41;82.38;101314.77;1820673;78;21108;-69
2020/12/16 00:52:44;;;;;;;12.10;9.35;;;;;;;0.42;82.36;101318.23;1801724;77;21981;-69
2020/12/16 00:55:12;;;;;;;12.80;9.13;;;;;;;0.39;82.34;101319.16;1802301;78;21127;-69
2020/12/16 00:57:40;;;;;;;14.65;9.98;;;;;;;0.38;82.28;101316.56;1817429;78;21095;-69
2020/12/16 01:00:10;;;;;;;12.45;9.05;;;;;;;0.37;82.25;101315.72;1805033;79;21106;-69
2020/12/16 01:02:45;;;;;;;20.27;15.43;;;;;;;0.36;82.26;101315.30;1822060;77;21169;-69
2020/12/16 01:05:19;;;;;;;19.48;13.93;;;;;;;0.35;82.23;101311.00;1813636;78;22822;-67
2020/12/16 01:07:47;;;;;;;49.58;31.35;;;;;;;0.35;82.22;101306.25;1825430;78;21218;-68
2020/12/16 01:10:17;;;;;;;57.65;34.23;;;;;;;0.35;82.20;101312.30;1832539;78;21031;-70
2020/12/16 01:12:47;;;;;;;60.45;36.85;;;;;;;0.36;82.20;101311.41;1815953;77;21079;-69
2020/12/16 01:15:22;;;;;;;38.78;24.77;;;;;;;0.37;82.14;101309.66;1800497;78;21166;-69
2020/12/16 01:17:52;;;;;;;18.35;13.05;;;;;;;0.36;82.09;101307.51;1800975;78;21834;-69
2020/12/16 01:20:21;;;;;;;17.30;10.78;;;;;;;0.35;82.06;101306.25;1803070;77;21215;-68
2020/12/16 01:22:51;;;;;;;14.58;10.10;;;;;;;0.34;82.05;101308.00;1806869;78;21161;-68
2020/12/16 01:25:22;;;;;;;66.65;43.80;;;;;;;0.35;82.02;101314.05;1807963;78;21123;-68
2020/12/16 01:27:53;;;;;;;57.03;38.70;;;;;;;0.34;82.00;101320.14;1825281;77;21470;-68
2020/12/16 01:30:21;;;;;;;28.23;19.92;;;;;;;0.33;81.98;101317.98;1817627;78;22054;-69
2020/12/16 01:32:51;;;;;;;18.48;12.10;;;;;;;0.34;81.96;101320.14;1829917;77;21114;-68
2020/12/16 01:35:20;;;;;;;14.80;11.12;;;;;;;0.31;81.94;101315.88;1831471;77;21115;-69
2020/12/16 01:37:47;;;;;;;12.70;10.05;;;;;;;0.31;81.94;101315.02;1810537;78;21178;-68
2020/12/16 01:40:16;;;;;;;13.03;10.10;;;;;;;0.32;81.92;101316.28;1799826;79;21067;-68
2020/12/16 01:42:45;;;;;;;16.42;12.43;;;;;;;0.32;81.90;101315.42;1800666;78;21956;-68
2020/12/16 01:45:19;;;;;;;16.67;11.25;;;;;;;0.32;81.89;101318.88;1827644;78;21131;-69
2020/12/16 01:47:48;;;;;;;15.40;12.30;;;;;;;0.32;81.87;101314.98;1824624;78;21131;-68
2020/12/16 01:50:20;;;;;;;13.93;10.15;;;;;;;0.30;81.82;101310.27;1832348;78;21099;-68
2020/12/16 01:52:49;;;;;;;12.00;8.68;;;;;;;0.30;81.79;101312.86;1816348;78;21138;-68
2020/12/16 01:55:20;;;;;;;18.35;12.03;;;;;;;0.28;81.79;101314.17;1788868;78;21327;-68
2020/12/16 01:57:50;;;;;;;13.55;9.55;;;;;;;0.26;81.76;101317.70;1819750;78;21066;-69
2020/12/16 02:00:20;;;;;;;13.65;9.58;;;;;;;0.28;81.76;101320.66;1821394;78;21142;-69
2020/12/16 02:02:51;;;;;;;13.15;9.33;;;;;;;0.26;81.72;101322.89;1803181;78;21119;-69
2020/12/16 02:05:37;;;;;;;14.58;11.97;;;;;;;0.24;81.68;101320.33;1826303;78;21205;-69
2020/12/16 02:08:08;;;;;;;13.88;10.72;;;;;;;0.27;81.69;101327.20;1822446;78;22922;-69
2020/12/16 02:10:36;;;;;;;17.70;13.65;;;;;;;0.27;81.67;101324.60;1802020;79;21099;-69
2020/12/16 02:13:06;;;;;;;16.25;12.60;;;;;;;0.25;81.64;101323.34;1808024;78;21039;-69
2020/12/16 02:15:36;;;;;;;17.75;12.10;;;;;;;0.24;81.60;101324.68;1812327;77;21494;-68
2020/12/16 02:18:05;;;;;;;16.75;12.25;;;;;;;0.24;81.56;101320.78;1827090;78;21019;-69
2020/12/16 02:20:34;;;;;;;35.08;21.48;;;;;;;0.22;81.56;101323.86;1798597;78;22056;-69
2020/12/16 02:23:07;;;;;;;60.78;32.88;;;;;;;0.25;81.58;101322.48;1808218;78;21477;-69
2020/12/16 02:25:36;;;;;;;30.40;18.50;;;;;;;0.23;81.53;101321.23;1799605;78;21459;-69
2020/12/16 02:28:08;;;;;;;18.57;12.40;;;;;;;0.24;81.51;101322.08;1829818;78;21067;-70
2020/12/16 02:30:36;;;;;;;16.02;11.60;;;;;;;0.21;81.48;101320.41;1813562;78;21036;-68
2020/12/16 02:33:18;;;;;;;15.78;10.23;;;;;;;0.21;81.50;101326.91;1816065;77;22177;-68
2020/12/16 02:35:47;;;;;;;15.45;11.12;;;;;;;0.21;81.51;101323.45;1796917;78;21170;-68
2020/12/16 02:38:17;;;;;;;14.90;10.82;;;;;;;0.20;81.50;101326.50;1798013;78;21504;-68
2020/12/16 02:40:45;;;;;;;17.60;11.48;;;;;;;0.20;81.48;101331.70;1817037;78;21055;-69
2020/12/16 02:43:14;;;;;;;13.93;9.65;;;;;;;0.22;81.49;101331.21;1818050;78;21060;-70
2020/12/16 02:45:44;;;;;;;34.43;18.57;;;;;;;0.21;81.45;101331.25;1808063;77;22072;-69
2020/12/16 02:48:13;;;;;;;33.23;18.70;;;;;;;0.23;81.42;101326.87;1826390;77;21083;-69
2020/12/16 02:50:43;;;;;;;22.35;15.75;;;;;;;0.23;81.39;101335.52;1817996;77;21068;-69
2020/12/16 02:53:11;;;;;;;43.25;25.02;;;;;;;0.22;81.36;101335.11;1797632;78;21107;-69
2020/12/16 02:55:51;;;;;;;45.83;27.75;;;;;;;0.22;81.33;101329.06;1821296;77;21441;-69
2020/12/16 02:58:19;;;;;;;21.20;13.95;;;;;;;0.23;81.35;101340.72;1810751;78;22058;-69
2020/12/16 03:00:47;;;;;;;18.82;14.95;;;;;;;0.24;81.34;101335.07;1804737;78;21158;-69
2020/12/16 03:03:35;;;;;;;16.00;10.90;;;;;;;0.24;81.32;101342.42;1798126;78;21370;-69
2020/12/16 03:06:15;;;;;;;40.85;27.32;;;;;;;0.25;81.32;101340.23;1799849;79;21069;-69
2020/12/16 03:08:46;;;;;;;36.17;22.95;;;;;;;0.22;81.29;101340.30;1801147;78;21070;-69
2020/12/16 03:11:18;;;;;;;26.07;17.25;;;;;;;0.22;81.24;101341.61;1810420;78;22078;-69
2020/12/16 03:13:47;;;;;;;19.70;12.90;;;;;;;0.23;81.23;101342.45;1813598;77;21182;-68
2020/12/16 03:16:19;;;;;;;15.48;10.63;;;;;;;0.24;81.22;101339.82;1801937;78;22287;-68
2020/12/16 03:18:48;;;;;;;15.38;11.38;;;;;;;0.24;81.21;101344.16;1801488;78;21118;-68
2020/12/16 03:21:24;;;;;;;14.93;10.50;;;;;;;0.25;81.25;101344.57;1832330;78;21361;-69
2020/12/16 03:23:54;;;;;;;71.47;48.52;;;;;;;0.25;81.26;101339.38;1805622;77;22129;-68
2020/12/16 03:26:42;;;;;;;31.45;22.67;;;;;;;0.30;81.29;101333.65;1880886;74;29053;-68
2020/12/16 03:29:14;;;;;;;13.90;10.20;;;;;;;0.25;81.28;101334.18;1839990;77;21178;-69
2020/12/16 03:32:04;;;;;;;15.90;10.93;;;;;;;0.24;81.25;101329.88;1888457;76;29103;-69
2020/12/16 03:34:37;;;;;;;14.83;11.03;;;;;;;0.18;81.23;101330.84;1771332;80;21114;-69
2020/12/16 03:37:07;;;;;;;12.85;10.85;;;;;;;0.20;81.24;101325.20;1805489;79;22942;-68
2020/12/16 03:39:35;;;;;;;14.58;10.55;;;;;;;0.23;81.20;101327.72;1849705;77;21066;-69
2020/12/16 03:42:04;;;;;;;56.40;41.30;;;;;;;0.23;81.19;101327.72;1817010;77;21073;-68
2020/12/16 03:44:33;;;;;;;63.25;45.80;;;;;;;0.25;81.20;101328.98;1842897;77;21034;-69
2020/12/16 03:47:02;;;;;;;22.58;16.27;;;;;;;0.25;81.19;101323.78;1808966;77;21085;-69
2020/12/16 03:49:30;;;;;;;17.73;12.50;;;;;;;0.26;81.18;101321.59;1808141;77;21891;-68
2020/12/16 03:51:58;;;;;;;14.40;10.65;;;;;;;0.27;81.16;101326.75;1836759;77;21568;-68
2020/12/16 03:54:30;;;;;;;16.05;11.38;;;;;;;0.26;81.08;101318.55;1815054;77;21074;-69
2020/12/16 03:56:59;;;;;;;14.75;10.58;;;;;;;0.24;81.07;101322.08;1814382;78;21133;-69
2020/12/16 03:59:54;;;;;;;17.27;11.55;;;;;;;0.26;81.09;101319.00;1853561;76;29443;-69
2020/12/16 04:02:27;;;;;;;15.32;10.82;;;;;;;0.23;81.09;101321.67;1815609;77;21153;-69
2020/12/16 04:05:08;;;;;;;14.28;10.70;;;;;;;0.26;81.14;101317.25;1867922;75;29099;-68
2020/12/16 04:07:36;;;;;;;14.33;11.20;;;;;;;0.20;81.14;101322.61;1808510;79;21056;-68
2020/12/16 04:10:06;;;;;;;13.55;10.60;;;;;;;0.19;81.13;101320.89;1806594;79;21882;-68
2020/12/16 04:12:34;;;;;;;13.75;10.08;;;;;;;0.19;81.14;101323.91;1821729;78;21096;-68
2020/12/16 04:15:03;;;;;;;12.60;9.55;;;;;;;0.18;81.12;101320.45;1810846;78;21131;-69
2020/12/16 04:17:33;;;;;;;12.80;10.20;;;;;;;0.18;81.08;101324.80;1828175;78;21530;-69
2020/12/16 04:20:06;;;;;;;13.15;9.58;;;;;;;0.16;81.07;101328.73;1817706;78;21076;-68
2020/12/16 04:22:36;;;;;;;15.68;10.90;;;;;;;0.16;81.07;101331.33;1817932;78;21528;-69
2020/12/16 04:25:05;;;;;;;15.70;10.48;;;;;;;0.17;81.05;101338.67;1819511;77;21150;-68
2020/12/16 04:27:34;;;;;;;15.10;10.95;;;;;;;0.19;81.06;101342.09;1808673;78;21588;-68
2020/12/16 04:30:04;;;;;;;14.75;10.90;;;;;;;0.19;81.08;101340.38;1808568;78;21143;-68
2020/12/16 04:32:35;;;;;;;13.95;10.55;;;;;;;0.21;81.09;101344.24;1809018;78;21059;-68
2020/12/16 04:35:03;;;;;;;15.98;11.25;;;;;;;0.21;81.06;101342.50;1822913;78;21813;-68
2020/12/16 04:37:32;;;;;;;15.98;11.38;;;;;;;0.20;81.06;101339.48;1817201;78;21115;-68
2020/12/16 04:40:02;;;;;;;15.08;11.18;;;;;;;0.22;81.07;101340.30;1808676;78;21126;-68
2020/12/16 04:42:31;;;;;;;15.38;11.33;;;;;;;0.21;81.11;101348.98;1833130;78;21084;-68
2020/12/16 04:44:58;;;;;;;11.83;9.30;;;;;;;0.21;81.12;101345.09;1808462;79;21056;-68
2020/12/16 04:47:28;;;;;;;14.15;10.23;;;;;;;0.21;81.09;101350.73;1787738;79;22074;-69
2020/12/16 04:49:59;;;;;;;19.52;11.33;;;;;;;0.20;81.04;101351.63;1823814;78;21080;-70
2020/12/16 04:52:29;;;;;;;13.60;10.23;;;;;;;0.20;81.03;101358.13;1812662;78;21355;-70
2020/12/16 04:55:21;;;;;;;15.05;11.00;;;;;;;0.23;81.07;101348.51;1888559;76;29040;-69
2020/12/16 04:57:54;;;;;;;15.08;11.30;;;;;;;0.20;81.05;101358.13;1773246;80;21094;-69
2020/12/16 05:00:23;;;;;;;13.50;10.03;;;;;;;0.20;81.03;101351.18;1812130;77;22972;-69
2020/12/16 05:03:04;;;;;;;14.63;10.78;;;;;;;0.21;81.04;101352.03;1847147;77;21161;-68
2020/12/16 05:05:58;;;;;;;11.90;9.50;;;;;;;0.24;81.05;101346.31;1850305;75;29530;-68
2020/12/16 05:08:27;;;;;;;16.35;11.10;;;;;;;0.18;81.02;101350.78;1748761;80;21504;-69
2020/12/16 05:10:55;;;;;;;26.68;16.57;;;;;;;0.12;81.03;101356.13;1774471;80;21834;-69
2020/12/16 05:13:26;;;;;;;18.35;12.45;;;;;;;0.10;81.08;101355.30;1755433;80;21111;-70
2020/12/16 05:15:53;;;;;;;13.85;10.70;;;;;;;0.12;81.16;101357.42;1756625;81;21551;-70
2020/12/16 05:18:25;;;;;;;13.70;10.48;;;;;;;0.14;81.18;101358.23;1755757;80;21583;-70
2020/12/16 05:20:58;;;;;;;15.45;11.57;;;;;;;0.13;81.13;101366.47;1756349;81;21602;-72
2020/12/16 05:23:28;;;;;;;16.40;11.22;;;;;;;0.12;81.18;101367.37;1743092;81;22062;-74
2020/12/16 05:26:08;;;;;;;15.45;11.45;;;;;;;0.10;81.17;101360.50;1752235;81;21512;-72
2020/12/16 05:28:41;;;;;;;16.65;11.30;;;;;;;0.09;81.18;101362.21;1749576;81;21087;-71
2020/12/16 05:31:10;;;;;;;13.40;10.15;;;;;;;0.09;81.17;101372.60;1693850;81;21360;-69
2020/12/16 05:33:49;;;;;;;16.62;11.95;;;;;;;0.09;81.18;101361.36;1753555;81;21097;-69
2020/12/16 05:36:30;;;;;;;17.07;12.07;;;;;;;0.09;81.15;101366.55;1756287;81;22079;-77
2020/12/16 05:38:59;;;;;;;16.30;11.38;;;;;;;0.11;81.18;101364.80;1757386;80;21065;-70
2020/12/16 05:41:34;;;;;;;16.05;11.90;;;;;;;0.13;81.19;101372.11;1750401;82;21053;-69
2020/12/16 05:44:21;;;;;;;15.93;11.45;;;;;;;0.11;81.20;101370.85;1748763;82;21590;-69
2020/12/16 05:46:50;;;;;;;16.25;12.10;;;;;;;0.13;81.22;101370.81;1750958;82;21179;-69
2020/12/16 05:49:24;;;;;;;12.18;8.80;;;;;;;0.13;81.21;101373.41;1751156;82;22462;-68
2020/12/16 05:51:58;;;;;;;15.58;11.38;;;;;;;0.12;81.24;101375.60;1757290;81;21556;-69
2020/12/16 05:54:26;;;;;;;16.23;11.80;;;;;;;0.08;81.21;101365.70;1721948;82;21318;-68
2020/12/16 05:57:21;;;;;;;11.88;9.50;;;;;;;0.09;81.21;101369.15;1750794;80;21124;-68
2020/12/16 06:00:10;;;;;;;14.83;10.90;;;;;;;0.10;81.25;101371.74;1754072;81;21654;-69
2020/12/16 06:02:45;;;;;;;16.57;11.90;;;;;;;0.11;81.19;101378.64;1748556;81;21578;-71
2020/12/16 06:05:15;;;;;;;16.52;12.23;;;;;;;0.11;81.17;101377.79;1750953;81;21563;-69
2020/12/16 06:07:45;;;;;;;15.48;11.38;;;;;;;0.12;81.16;101383.39;1751028;82;21105;-69
2020/12/16 06:10:13;;;;;;;14.03;9.95;;;;;;;0.11;81.15;101383.84;1749914;81;21118;-69
2020/12/16 06:12:44;;;;;;;14.35;10.00;;;;;;;0.11;81.16;101384.28;1752640;80;21132;-69
2020/12/16 06:15:15;;;;;;;15.18;10.80;;;;;;;0.08;81.11;101387.78;1722472;82;22118;-69
2020/12/16 06:17:49;;;;;;;17.37;11.28;;;;;;;0.06;81.08;101390.86;1742585;82;21177;-69
2020/12/16 06:20:18;;;;;;;16.67;11.25;;;;;;;0.02;81.07;101389.66;1727501;82;21125;-69
2020/12/16 06:22:48;;;;;;;13.30;8.80;;;;;;;0.01;81.09;101397.05;1750624;82;21532;-69
2020/12/16 06:25:17;;;;;;;12.95;9.05;;;;;;;0.01;81.03;101396.60;1723623;82;21077;-69
2020/12/16 06:27:48;;;;;;;13.10;9.08;;;;;;;-0.02;80.96;101391.00;1749577;82;22148;-70
2020/12/16 06:30:31;;;;;;;13.75;8.98;;;;;;;-0.04;80.90;101393.22;1750521;82;21076;-68
2020/12/16 06:33:14;;;;;;;10.70;6.62;;;;;;;-0.06;80.91;101390.66;1718458;82;21089;-68
2020/12/16 06:35:42;;;;;;;11.63;7.72;;;;;;;-0.10;80.87;101398.08;1708604;82;21160;-69
2020/12/16 06:38:23;;;;;;;15.25;10.13;;;;;;;-0.19;80.82;101400.88;1744721;82;21441;-68
2020/12/16 06:40:56;;;;;;;16.60;11.40;;;;;;;-0.22;80.85;101402.21;1744301;82;22064;-69
2020/12/16 06:43:35;;;;;;;19.23;13.83;;;;;;;-0.21;80.90;101406.95;1714899;82;21567;-68
2020/12/16 06:46:05;;;;;;;19.07;13.43;;;;;;;-0.18;80.97;101411.67;1750200;82;21567;-68
2020/12/16 06:48:39;;;;;;;18.37;13.62;;;;;;;-0.13;81.04;101415.47;1729789;82;21168;-68
2020/12/16 06:51:25;;;;;;;18.95;13.05;;;;;;;-0.10;81.08;101418.00;1717598;82;21506;-69
2020/12/16 06:54:17;;;;;;;15.98;11.83;;;;;;;-0.05;81.16;101417.04;1728110;82;22066;-69
2020/12/16 06:56:46;;;;;;;13.98;9.80;;;;;;;-0.04;81.15;101414.85;1738626;80;21116;-70
2020/12/16 06:59:49;;;;;;;17.92;12.65;;;;;;;-0.10;81.12;101418.85;1742274;82;21084;-70
2020/12/16 07:02:35;;;;;;;18.30;12.90;;;;;;;-0.14;81.13;101410.72;1716972;82;21204;-68
2020/12/16 07:05:06;;;;;;;17.15;12.60;;;;;;;-0.10;81.18;101408.46;1726268;82;21077;-68
2020/12/16 07:07:49;;;;;;;16.90;11.90;;;;;;;-0.06;81.19;101405.39;1691155;83;22067;-68
2020/12/16 07:10:41;;;;;;;12.73;9.47;;;;;;;-0.06;81.18;101412.73;1709475;82;21219;-68
2020/12/16 07:13:18;;;;;;;19.87;13.53;;;;;;;-0.06;81.19;101418.38;1716678;82;21151;-69
2020/12/16 07:16:16;;;;;;;18.90;13.35;;;;;;;-0.05;81.23;101418.34;1723438;82;21070;-75
2020/12/16 07:18:49;;;;;;;18.70;13.48;;;;;;;-0.02;81.21;101413.08;1750142;81;21160;-71
2020/12/16 07:21:19;;;;;;;21.20;15.30;;;;;;;0.01;81.21;101419.13;1750083;81;22053;-72
2020/12/16 07:24:00;;;;;;;26.07;18.40;;;;;;;0.03;81.19;101427.73;1749764;81;21073;-71
2020/12/16 07:26:51;;;;;;;18.15;13.43;;;;;;;0.02;81.12;101431.22;1722083;81;21140;-69
2020/12/16 07:29:32;;;;;;;17.30;13.28;;;;;;;-0.03;80.98;101436.04;1710329;82;21079;-71
2020/12/16 07:32:09;;;;;;;17.27;13.08;;;;;;;-0.06;80.92;101436.55;1750261;82;21049;-72
2020/12/16 07:34:58;;;;;;;16.57;12.20;;;;;;;-0.10;80.87;101439.63;1750508;82;22051;-72
2020/12/16 07:37:31;;;;;;;18.80;14.13;;;;;;;-0.13;80.84;101437.54;1716467;82;21085;-73
2020/12/16 07:40:02;;;;;;;24.50;17.65;;;;;;;-0.17;80.81;101428.96;1714486;81;21070;-68
2020/12/16 07:42:34;;;;;;;22.73;16.15;;;;;;;-0.16;80.84;101432.41;1747724;81;21135;-68
2020/12/16 07:45:07;;;;;;;21.52;16.45;;;;;;;-0.15;80.86;101438.88;1748940;82;21133;-70
2020/12/16 07:47:36;;;;;;;24.72;18.20;;;;;;;-0.11;80.90;101443.11;1720736;82;22037;-69
2020/12/16 07:50:09;;;;;;;24.98;18.23;;;;;;;-0.08;80.93;101439.63;1734451;82;21148;-70
2020/12/16 07:52:37;;;;;;;;;;;;;;;-0.04;80.97;101445.16;1749894;82;21073;-71
2020/12/16 07:55:06;;;;;;;24.63;18.02;;;;;;;-0.03;80.97;101438.63;1750307;82;20987;-72
2020/12/16 07:57:37;;;;;;;24.52;18.10;;;;;;;-0.02;80.95;101439.05;1750483;81;21162;-72
2020/12/16 08:00:05;;;;;;;28.57;20.12;;;;;;;0.01;80.91;101445.09;1739490;82;21910;-75
2020/12/16 08:02:46;;;;;;;33.60;22.73;;;;;;;0.05;80.93;101440.24;1734237;82;21168;-74
2020/12/16 08:05:14;;;;;;;26.40;17.57;;;;;;;0.09;80.95;101445.78;1719634;82;21160;-71
2020/12/16 08:07:42;;;;;;;20.55;14.28;;;;;;;0.11;80.92;101442.73;1756698;81;21576;-71
2020/12/16 08:10:10;;;;;;;24.98;18.17;;;;;;;0.10;80.84;101448.38;1747797;80;21792;-72
2020/12/16 08:12:41;;;;;;;22.55;17.40;;;;;;;0.05;80.73;101445.44;1750402;80;22071;-72
2020/12/16 08:15:16;;;;;;;23.95;16.57;;;;;;;0.04;80.71;101447.17;1712682;82;21073;-69
2020/12/16 08:17:49;;;;;;;27.42;19.50;;;;;;;0.02;80.69;101442.47;1730233;80;21124;-70
2020/12/16 08:20:21;;;;;;;35.40;22.22;;;;;;;-0.01;80.67;101438.60;1744203;82;21104;-70
2020/12/16 08:22:57;;;;;;;72.47;31.87;;;;;;;0.02;80.70;101441.61;1757366;81;21061;-70
2020/12/16 08:25:25;;;;;;;98.75;38.53;;;;;;;0.03;80.71;101441.58;1745848;82;22908;-70
2020/12/16 08:27:55;;;;;;;88.70;34.40;;;;;;;0.03;80.69;101436.83;1740033;82;21116;-70
2020/12/16 08:30:27;;;;;;;98.55;36.88;;;;;;;0.00;80.60;101440.34;1721752;82;21073;-70
2020/12/16 08:33:13;;;;;;;110.90;38.45;;;;;;;-0.04;80.54;101431.73;1728094;82;21113;-70
2020/12/16 08:35:50;;;;;;;108.87;38.58;;;;;;;-0.07;80.50;101432.25;1744864;82;27266;-70
2020/12/16 08:38:32;;;;;;;98.03;35.83;;;;;;;-0.10;80.51;101433.13;1741840;82;22803;-69
2020/12/16 08:41:00;;;;;;;67.45;28.85;;;;;;;-0.13;80.50;101429.30;1719932;81;21211;-71
2020/12/16 08:43:35;;;;;;;54.85;27.35;;;;;;;-0.13;80.52;101433.20;1748934;81;21510;-69
2020/12/16 08:46:12;;;;;;;62.10;26.05;;;;;;;-0.09;80.54;101437.47;1742502;81;21136;-74
2020/12/16 08:48:51;;;;;;;51.37;26.37;;;;;;;-0.09;80.48;101430.98;1739891;82;21508;-69
2020/12/16 08:51:28;;;;;;;64.25;31.85;;;;;;;-0.11;80.42;101426.23;1749132;81;22075;-69
2020/12/16 08:53:57;;;;;;;94.65;38.45;;;;;;;-0.10;80.40;101428.38;1742480;80;21133;-71
2020/12/16 08:56:37;;;;;;;115.82;44.42;;;;;;;-0.07;80.45;101438.73;1726310;82;21124;-71
2020/12/16 08:59:24;;;;;;;153.12;48.45;;;;;;;-0.04;80.44;101438.23;1730550;82;21072;-69
2020/12/16 09:02:09;;;;;;;242.65;74.60;;;;;;;0.02;80.45;101428.62;1742237;82;21084;-68
2020/12/16 09:04:43;;;;;;;249.02;78.52;;;;;;;0.00;80.41;101429.95;1736978;82;21574;-69
2020/12/16 09:07:24;;;;;;;262.17;83.12;;;;;;;0.03;80.37;101434.23;1758898;79;21139;-70
2020/12/16 09:10:00;;;;;;;278.80;87.30;;;;;;;0.03;80.34;101431.19;1733997;81;21117;-70
2020/12/16 09:12:27;;;;;;;302.80;95.22;;;;;;;0.05;80.34;101435.05;1764996;80;21152;-69
2020/12/16 09:15:02;;;;;;;285.15;93.00;;;;;;;0.06;80.32;101432.86;1765063;81;20899;-69
2020/12/16 09:17:31;;;;;;;295.73;94.37;;;;;;;0.05;80.30;101425.52;1760716;81;22128;-68
2020/12/16 09:19:59;;;;;;;342.13;105.45;;;;;;;0.04;80.22;101423.80;1740430;81;21213;-67
2020/12/16 09:22:29;;;;;;;250.30;79.58;;;;;;;0.03;80.17;101419.94;1765268;81;21145;-69
2020/12/16 09:24:59;;;;;;;283.15;92.45;;;;;;;0.02;80.15;101423.42;1763499;81;21158;-68
2020/12/16 09:27:28;;;;;;;300.30;98.55;;;;;;;-0.02;80.11;101424.77;1764952;81;21143;-68
2020/12/16 09:29:56;;;;;;;266.95;82.50;;;;;;;-0.03;80.13;101421.75;1765354;81;21966;-67
2020/12/16 09:32:27;;;;;;;346.02;109.80;;;;;;;-0.03;80.13;101412.66;1761381;81;21395;-68
2020/12/16 09:34:55;;;;;;;273.18;86.67;;;;;;;-0.02;80.13;101426.50;1765610;81;21151;-69
2020/12/16 09:37:30;;;;;;;236.62;78.17;;;;;;;-0.04;80.11;101422.64;1759495;80;21520;-68
2020/12/16 09:40:11;;;;;;;312.25;103.47;;;;;;;-0.05;80.14;101418.34;1752349;81;21164;-69
2020/12/16 09:42:39;;;;;;;287.33;96.02;;;;;;;-0.05;80.20;101413.59;1761313;81;22070;-68
2020/12/16 09:45:13;;;;;;;300.27;100.22;;;;;;;-0.06;80.21;101419.67;1765679;81;21178;-68
2020/12/16 09:47:45;;;;;;;276.07;93.00;;;;;;;-0.04;80.28;101419.19;1766398;81;21131;-68
2020/12/16 09:50:15;;;;;;;174.90;66.70;;;;;;;-0.02;80.32;101415.67;1762821;80;21058;-68
2020/12/16 09:52:43;;;;;;;191.95;70.22;;;;;;;-0.03;80.31;101412.66;1765607;80;21459;-68
2020/12/16 09:55:20;;;;;;;109.95;42.30;;;;;;;-0.03;80.31;101415.27;1759986;81;21968;-69
2020/12/16 09:58:07;;;;;;;95.10;42.65;;;;;;;-0.06;80.34;101410.14;1741716;81;21065;-70
2020/12/16 10:00:38;;;;;;;96.57;42.90;;;;;;;-0.07;80.32;101420.56;1751585;80;21058;-70
2020/12/16 10:03:07;;;;;;;92.60;42.20;;;;;;;-0.12;80.34;101414.14;1740217;80;21172;-69
2020/12/16 10:05:38;;;;;;;70.75;32.50;;;;;;;-0.11;80.38;101414.98;1760256;80;21204;-68
2020/12/16 10:08:06;;;;;;;83.95;36.58;;;;;;;-0.12;80.37;101411.98;1747167;80;21895;-70
2020/12/16 10:10:37;;;;;;;75.75;31.70;;;;;;;-0.17;80.37;101406.89;1748519;82;21061;-69
2020/12/16 10:13:05;;;;;;;63.25;29.95;;;;;;;-0.20;80.43;101412.13;1749025;80;21579;-68
2020/12/16 10:15:33;;;;;;;75.78;35.45;;;;;;;-0.23;80.46;101399.65;1746773;82;21130;-70
2020/12/16 10:18:01;;;;;;;64.77;31.37;;;;;;;-0.23;80.49;101403.09;1747647;80;21180;-68
2020/12/16 10:20:30;;;;;;;47.00;23.12;;;;;;;-0.23;80.52;101406.99;1745835;82;22951;-70
2020/12/16 10:22:58;;;;;;;50.65;25.27;;;;;;;-0.28;80.52;101404.94;1755781;80;21129;-66
2020/12/16 10:25:26;;;;;;;44.40;21.55;;;;;;;-0.29;80.52;101409.69;1746440;82;21105;-67
2020/12/16 10:27:53;;;;;;;44.98;24.07;;;;;;;-0.31;80.59;101408.42;1749876;80;21148;-67
2020/12/16 10:30:25;;;;;;;37.48;19.23;;;;;;;-0.30;80.64;101407.98;1748971;82;21072;-69
2020/12/16 10:32:57;;;;;;;49.85;26.10;;;;;;;-0.31;80.66;101406.27;1728866;82;21888;-69
2020/12/16 10:35:25;;;;;;;39.90;21.85;;;;;;;-0.32;80.65;101400.67;1745802;80;21136;-69
2020/12/16 10:37:52;;;;;;;55.73;27.87;;;;;;;-0.31;80.69;101403.23;1749116;82;21416;-69
2020/12/16 10:40:21;;;;;;;41.15;21.30;;;;;;;-0.30;80.71;101407.53;1745116;82;21192;-69
2020/12/16 10:42:49;;;;;;;41.00;20.40;;;;;;;-0.30;80.72;101396.30;1748246;82;21121;-68
2020/12/16 10:45:17;;;;;;;45.52;23.20;;;;;;;-0.28;80.75;101401.48;1750105;82;22074;-68
2020/12/16 10:47:45;;;;;;;35.58;20.15;;;;;;;-0.28;80.77;101398.89;1741338;81;21131;-68
2020/12/16 10:50:13;;;;;;;46.88;24.47;;;;;;;-0.29;80.76;101394.11;1749468;81;21595;-68
2020/12/16 10:52:40;;;;;;;30.48;16.50;;;;;;;-0.31;80.75;101389.40;1739496;81;21167;-69
2020/12/16 10:55:08;;;;;;;23.83;13.85;;;;;;;-0.33;80.75;101391.17;1738592;80;21108;-69
2020/12/16 10:57:38;;;;;;;25.27;14.28;;;;;;;-0.37;80.73;101385.19;1726923;82;22059;-69
2020/12/16 11:00:07;;;;;;;29.20;16.87;;;;;;;-0.44;80.72;101379.69;1723736;82;21629;-70
2020/12/16 11:02:35;;;;;;;29.55;17.05;;;;;;;-0.49;80.72;101375.45;1742105;82;21631;-68
2020/12/16 11:05:04;;;;;;;32.08;18.30;;;;;;;-0.50;80.77;101371.15;1748851;82;21163;-68
2020/12/16 11:07:32;;;;;;;32.80;19.25;;;;;;;-0.50;80.81;101370.70;1762155;81;21119;-68
2020/12/16 11:10:00;;;;;;;23.98;15.68;;;;;;;-0.49;80.86;101368.97;1752414;81;22753;-68
2020/12/16 11:12:29;;;;;;;33.90;19.50;;;;;;;-0.50;80.82;101368.11;1765446;81;21092;-67
2020/12/16 11:14:57;;;;;;;30.72;18.30;;;;;;;-0.48;80.82;101371.97;1766441;81;21144;-69
2020/12/16 11:17:40;;;;;;;30.90;18.70;;;;;;;-0.46;80.86;101367.19;1746223;81;21144;-67
2020/12/16 11:20:09;;;;;;;35.65;21.77;;;;;;;-0.42;80.89;101371.43;1767511;79;21179;-67
2020/12/16 11:22:49;;;;;;;46.10;23.50;;;;;;;-0.40;80.94;101364.91;1749363;81;22046;-68
2020/12/16 11:25:20;;;;;;;30.95;15.70;;;;;;;-0.41;80.98;101368.39;1748206;82;21121;-68
2020/12/16 11:27:48;;;;;;;26.10;13.55;;;;;;;-0.45;81.02;101372.80;1762022;80;21180;-67
2020/12/16 11:30:16;;;;;;;27.87;15.55;;;;;;;-0.46;81.02;101374.98;1735965;81;21203;-68
2020/12/16 11:32:45;;;;;;;46.45;23.30;;;;;;;-0.49;81.03;101377.61;1766733;80;21120;-68
2020/12/16 11:35:14;;;;;;;28.47;17.55;;;;;;;-0.52;81.05;101368.59;1741363;81;22128;-69
2020/12/16 11:37:49;;;;;;;25.50;15.68;;;;;;;-0.48;81.11;101369.37;1748183;81;21136;-67